M4105 EPRZ-LIRN
Flight info
| Callsign | M4105 |
|---|---|
| Flight time | N/A |
| Altitude | 38000 |
| Route | LUXAR L984 GEVNA DCT MEBAN DCT MOCON DCT XOMBA DCT KOPRY DCT DEPET DCT ZDA DCT XAMIT/N0430F370 DCT TEA |
| Aircraft | A319/M-SDE3FGHIRWY/LB1 |
Departure
| Time | 2026-04-25 19:22 |
|---|---|
| Airport | Rzeszów-Jasionka Airport (EPRZ) |
Arrival
| Time | N/A |
|---|---|
| Airport | Naples International Airport (LIRN) |
| Time | Latitude | Longitude | Altitude | Speed | Heading |
|---|---|---|---|---|---|
| 2026-04-25 19:00 | 50.11426 | 22.02621 | 686 ft | 0 kts | 1° |
| 2026-04-25 19:11 | 50.11424 | 22.02621 | 686 ft | 1 kts | 1° |
| 2026-04-25 19:11 | 50.11410 | 22.02621 | 686 ft | 2 kts | 1° |
| 2026-04-25 19:11 | 50.11395 | 22.02620 | 686 ft | 2 kts | 1° |
| 2026-04-25 19:11 | 50.11381 | 22.02620 | 685 ft | 2 kts | 1° |
| 2026-04-25 19:12 | 50.11366 | 22.02619 | 685 ft | 2 kts | 1° |
| 2026-04-25 19:12 | 50.11351 | 22.02619 | 685 ft | 2 kts | 1° |
| 2026-04-25 19:12 | 50.11337 | 22.02615 | 684 ft | 2 kts | 32° |
| 2026-04-25 19:12 | 50.11326 | 22.02599 | 684 ft | 2 kts | 62° |
| 2026-04-25 19:13 | 50.11322 | 22.02581 | 684 ft | 0 kts | 88° |
| 2026-04-25 19:13 | 50.11322 | 22.02570 | 684 ft | 1 kts | 93° |
| 2026-04-25 19:13 | 50.11322 | 22.02569 | 684 ft | 0 kts | 92° |
| 2026-04-25 19:18 | 50.11322 | 22.02575 | 684 ft | 3 kts | 91° |
| 2026-04-25 19:18 | 50.11321 | 22.02653 | 684 ft | 11 kts | 92° |
| 2026-04-25 19:18 | 50.11253 | 22.02740 | 683 ft | 17 kts | 174° |
| 2026-04-25 19:18 | 50.11105 | 22.02733 | 680 ft | 24 kts | 180° |
| 2026-04-25 19:19 | 50.10990 | 22.02776 | 679 ft | 17 kts | 111° |
| 2026-04-25 19:19 | 50.10981 | 22.02968 | 677 ft | 18 kts | 90° |
| 2026-04-25 19:19 | 50.10979 | 22.03175 | 677 ft | 19 kts | 90° |
| 2026-04-25 19:19 | 50.10978 | 22.03319 | 674 ft | 21 kts | 91° |
| 2026-04-25 19:20 | 50.10973 | 22.03638 | 671 ft | 23 kts | 91° |
| 2026-04-25 19:20 | 50.10970 | 22.03893 | 669 ft | 24 kts | 91° |
| 2026-04-25 19:20 | 50.10976 | 22.04160 | 664 ft | 25 kts | 87° |
| 2026-04-25 19:20 | 50.10976 | 22.04438 | 664 ft | 25 kts | 89° |
| 2026-04-25 19:21 | 50.10954 | 22.04581 | 662 ft | 8 kts | 247° |
| 2026-04-25 19:21 | 50.10954 | 22.04573 | 662 ft | 0 kts | 271° |
| 2026-04-25 19:21 | 50.10954 | 22.04567 | 662 ft | 0 kts | 274° |
| 2026-04-25 19:22 | 50.10965 | 22.04248 | 664 ft | 69 kts | 271° |
| 2026-04-25 19:22 | 50.10977 | 22.03120 | 678 ft | 138 kts | 271° |
| 2026-04-25 19:22 | 50.11014 | 21.99421 | 1416 ft | 197 kts | 271° |
| 2026-04-25 19:23 | 50.10982 | 21.97140 | 1910 ft | 229 kts | 271° |
| 2026-04-25 19:23 | 50.11065 | 21.91412 | 2901 ft | 294 kts | 274° |
| 2026-04-25 19:23 | 50.11135 | 21.88134 | 3663 ft | 314 kts | 273° |
| 2026-04-25 19:24 | 50.11189 | 21.84708 | 4401 ft | 319 kts | 272° |
| 2026-04-25 19:24 | 50.11230 | 21.81196 | 5157 ft | 329 kts | 272° |
| 2026-04-25 19:24 | 50.11299 | 21.74339 | 5967 ft | 291 kts | 272° |
| 2026-04-25 19:25 | 50.11374 | 21.67878 | 6026 ft | 333 kts | 272° |
| 2026-04-25 19:25 | 50.11407 | 21.64269 | 6587 ft | 334 kts | 272° |
| 2026-04-25 19:25 | 50.11438 | 21.60610 | 7347 ft | 345 kts | 272° |
| 2026-04-25 19:26 | 50.11467 | 21.56823 | 8255 ft | 353 kts | 272° |
| 2026-04-25 19:26 | 50.11497 | 21.52993 | 9137 ft | 358 kts | 272° |
| 2026-04-25 19:26 | 50.11527 | 21.49121 | 10024 ft | 363 kts | 272° |
| 2026-04-25 19:26 | 50.11499 | 21.45195 | 10900 ft | 368 kts | 266° |
| 2026-04-25 19:27 | 50.10728 | 21.41405 | 11770 ft | 378 kts | 245° |
| 2026-04-25 19:27 | 50.09692 | 21.39190 | 12357 ft | 386 kts | 232° |
| 2026-04-25 19:27 | 50.06972 | 21.35560 | 13526 ft | 392 kts | 225° |
| 2026-04-25 19:27 | 50.04861 | 21.32849 | 14410 ft | 393 kts | 225° |
| 2026-04-25 19:28 | 50.02761 | 21.30136 | 15293 ft | 393 kts | 225° |
| 2026-04-25 19:28 | 50.00671 | 21.27430 | 16175 ft | 392 kts | 225° |
| 2026-04-25 19:28 | 49.98587 | 21.24738 | 17055 ft | 391 kts | 225° |
| 2026-04-25 19:28 | 49.96511 | 21.22063 | 17934 ft | 388 kts | 225° |
| 2026-04-25 19:29 | 49.94625 | 21.19219 | 18770 ft | 377 kts | 238° |
| 2026-04-25 19:29 | 49.93454 | 21.15737 | 19658 ft | 364 kts | 256° |
| 2026-04-25 19:29 | 49.93068 | 21.11954 | 20540 ft | 354 kts | 271° |
| 2026-04-25 19:29 | 49.93101 | 21.08181 | 21432 ft | 350 kts | 273° |
| 2026-04-25 19:30 | 49.93151 | 21.04443 | 22329 ft | 346 kts | 273° |
| 2026-04-25 19:30 | 49.93198 | 21.00788 | 23221 ft | 341 kts | 274° |
| 2026-04-25 19:30 | 49.93243 | 20.97163 | 24124 ft | 336 kts | 274° |
| 2026-04-25 19:30 | 49.93287 | 20.93595 | 25036 ft | 330 kts | 274° |
| 2026-04-25 19:31 | 49.93328 | 20.90064 | 25804 ft | 328 kts | 274° |
| 2026-04-25 19:31 | 49.93368 | 20.86524 | 26465 ft | 329 kts | 274° |
| 2026-04-25 19:31 | 49.93404 | 20.83019 | 27120 ft | 329 kts | 274° |
| 2026-04-25 19:31 | 49.93439 | 20.79483 | 27781 ft | 328 kts | 274° |
| 2026-04-25 19:32 | 49.93463 | 20.76008 | 28430 ft | 327 kts | 271° |
| 2026-04-25 19:32 | 49.93087 | 20.72510 | 29088 ft | 332 kts | 257° |
| 2026-04-25 19:32 | 49.92085 | 20.69265 | 29751 ft | 338 kts | 244° |
| 2026-04-25 19:32 | 49.91240 | 20.67270 | 30194 ft | 337 kts | 243° |
| 2026-04-25 19:33 | 49.89504 | 20.63306 | 31061 ft | 333 kts | 242° |
| 2026-04-25 19:33 | 49.88194 | 20.60391 | 31702 ft | 329 kts | 242° |
| 2026-04-25 19:33 | 49.86895 | 20.57492 | 32348 ft | 324 kts | 242° |
| 2026-04-25 19:33 | 49.85646 | 20.54689 | 32989 ft | 318 kts | 243° |
| 2026-04-25 19:34 | 49.84404 | 20.51893 | 33635 ft | 311 kts | 243° |
| 2026-04-25 19:34 | 49.83202 | 20.49177 | 34216 ft | 305 kts | 243° |
| 2026-04-25 19:34 | 49.82023 | 20.46504 | 34694 ft | 302 kts | 243° |
| 2026-04-25 19:34 | 49.80837 | 20.43808 | 34891 ft | 307 kts | 243° |
| 2026-04-25 19:35 | 49.79606 | 20.41007 | 34907 ft | 318 kts | 243° |
| 2026-04-25 19:35 | 49.78354 | 20.38158 | 34915 ft | 329 kts | 243° |
| 2026-04-25 19:35 | 49.77030 | 20.35155 | 34918 ft | 340 kts | 243° |
| 2026-04-25 19:35 | 49.75687 | 20.32113 | 34909 ft | 351 kts | 242° |
| 2026-04-25 19:36 | 49.72852 | 20.25698 | 34913 ft | 371 kts | 242° |
| 2026-04-25 19:36 | 49.69885 | 20.19022 | 34917 ft | 389 kts | 241° |
| 2026-04-25 19:37 | 49.66757 | 20.12002 | 34916 ft | 406 kts | 241° |
| 2026-04-25 19:37 | 49.63493 | 20.04707 | 34920 ft | 421 kts | 241° |
| 2026-04-25 19:38 | 49.60113 | 19.97166 | 34924 ft | 432 kts | 241° |
| 2026-04-25 19:38 | 49.56736 | 19.89664 | 34927 ft | 414 kts | 241° |
| 2026-04-25 19:39 | 49.55129 | 19.86109 | 34928 ft | 397 kts | 241° |
| 2026-04-25 19:39 | 49.53608 | 19.82737 | 34933 ft | 381 kts | 242° |
| 2026-04-25 19:39 | 49.52126 | 19.79445 | 34934 ft | 370 kts | 242° |
| 2026-04-25 19:39 | 49.50650 | 19.76151 | 34941 ft | 379 kts | 242° |
| 2026-04-25 19:40 | 49.47580 | 19.69339 | 34938 ft | 397 kts | 240° |
| 2026-04-25 19:40 | 49.45885 | 19.65938 | 34944 ft | 408 kts | 237° |
| 2026-04-25 19:40 | 49.43971 | 19.62657 | 34943 ft | 419 kts | 232° |
| 2026-04-25 19:41 | 49.39690 | 19.56377 | 34942 ft | 432 kts | 230° |
| 2026-04-25 19:41 | 49.36007 | 19.51089 | 34943 ft | 435 kts | 230° |
| 2026-04-25 19:42 | 49.33118 | 19.46961 | 34948 ft | 423 kts | 230° |
| 2026-04-25 19:42 | 49.30996 | 19.43919 | 34949 ft | 421 kts | 230° |
| 2026-04-25 19:42 | 49.26744 | 19.37823 | 34948 ft | 419 kts | 230° |
| 2026-04-25 19:43 | 49.22488 | 19.31728 | 34955 ft | 420 kts | 229° |
| 2026-04-25 19:43 | 49.18214 | 19.25634 | 34951 ft | 421 kts | 228° |
| 2026-04-25 19:44 | 49.13549 | 19.20163 | 34953 ft | 430 kts | 219° |
| 2026-04-25 19:44 | 49.08345 | 19.15585 | 34961 ft | 433 kts | 216° |
| 2026-04-25 19:45 | 49.03106 | 19.11151 | 34964 ft | 432 kts | 216° |
| 2026-04-25 19:45 | 48.97866 | 19.06718 | 34962 ft | 432 kts | 216° |
| 2026-04-25 19:46 | 48.92651 | 19.02313 | 34965 ft | 432 kts | 216° |
| 2026-04-25 19:46 | 48.87377 | 18.97879 | 34974 ft | 432 kts | 216° |
| 2026-04-25 19:47 | 48.82122 | 18.93488 | 34985 ft | 434 kts | 216° |
| 2026-04-25 19:47 | 48.76857 | 18.89084 | 34986 ft | 435 kts | 216° |
| 2026-04-25 19:48 | 48.72458 | 18.85410 | 34994 ft | 435 kts | 216° |